| time (UTC) | temp F | wind direction | speed MPH | gust MPH | rain 1hr in | rain 24hr in | rain mn in | humidity % | barometer mb |
| 20260906192019 | 103 | 317 | 1.0 | 4.0 | 0.00 | 0.00 | 0.00 | 23 | 1011.1 |
| 20260906191519 | 103 | 232 | 3.0 | 4.0 | 0.00 | 0.00 | 0.00 | 24 | 1011.2 |
| 20260906191018 | 102 | 152 | 1.0 | 6.0 | 0.00 | 0.00 | 0.00 | 24 | 1011.2 |
| 20260906190518 | 102 | 235 | 1.0 | 8.0 | 0.00 | 0.00 | 0.00 | 26 | 1011.3 |
| 20260906185019 | 101 | 11 | 0.0 | 2.0 | 0.00 | 0.00 | 0.00 | 27 | 1011.5 |
| 20260906184519 | 101 | 13 | 0.0 | 4.0 | 0.00 | 0.00 | 0.00 | 27 | 1011.6 |
| 20260906184019 | 101 | 12 | 0.0 | 8.0 | 0.00 | 0.00 | 0.00 | 27 | 1011.5 |
| 20260906183519 | 102 | 348 | 4.0 | 8.0 | 0.00 | 0.00 | 0.00 | 26 | 1011.7 |
| 20260906183019 | 101 | 349 | 1.0 | 8.0 | 0.00 | 0.00 | 0.00 | 27 | 1011.8 |
| 20260906181519 | 101 | 41 | 0.0 | 3.0 | 0.00 | 0.00 | 0.00 | 27 | 1012.2 |
| 20260906180019 | 101 | 5 | 0.0 | 4.0 | 0.00 | 0.00 | 0.00 | 28 | 1012.5 |
| 20260906175519 | 100 | 5 | 0.0 | 6.0 | 0.00 | 0.00 | 0.00 | 28 | 1012.5 |
| 20260906174519 | 100 | 234 | 1.0 | 3.0 | 0.00 | 0.00 | 0.00 | 29 | 1012.8 |
| 20260906174018 | 100 | 159 | 0.0 | 5.0 | 0.00 | 0.00 | 0.00 | 28 | 1012.8 |
| 20260906173527 | 100 | 178 | 0.0 | 4.0 | 0.00 | 0.00 | 0.00 | 28 | 1012.8 |
| 20260906173019 | 100 | 218 | 2.0 | 4.0 | 0.00 | 0.00 | 0.00 | 29 | 1013.0 |
| 20260906172518 | 100 | 248 | 2.0 | 4.0 | 0.00 | 0.00 | 0.00 | 29 | 1013.1 |
| 20260906172018 | 99 | 200 | 1.0 | 5.0 | 0.00 | 0.00 | 0.00 | 30 | 1013.1 |
| 20260906171519 | 99 | 327 | 2.0 | 4.0 | 0.00 | 0.00 | 0.00 | 30 | 1013.1 |
| 20260906170518 | 98 | 292 | 0.0 | 1.0 | 0.00 | 0.00 | 0.00 | 32 | 1013.3 |
| 20260906170018 | 98 | 286 | 0.0 | 4.0 | 0.00 | 0.00 | 0.00 | 32 | 1013.4 |
| 20260906164519 | 97 | 311 | 0.0 | 2.0 | 0.00 | 0.00 | 0.00 | 35 | 1013.6 |
| 20260906164019 | 96 | 310 | 0.0 | 4.0 | 0.00 | 0.00 | 0.00 | 35 | 1013.6 |
| 20260906163518 | 95 | 339 | 1.0 | 4.0 | 0.00 | 0.00 | 0.00 | 37 | 1013.6 |
| 20260906163020 | 95 | 269 | 0.0 | 2.0 | 0.00 | 0.00 | 0.00 | 38 | 1013.6 |
| 20260906162518 | 94 | 273 | 0.0 | 1.0 | 0.00 | 0.00 | 0.00 | 40 | 1013.6 |
| 20260906162019 | 94 | 271 | 0.0 | 2.0 | 0.00 | 0.00 | 0.00 | 39 | 1013.6 |
| 20260906161519 | 94 | 275 | 0.0 | 2.0 | 0.00 | 0.00 | 0.00 | 39 | 1013.6 |
| 20260906161018 | 93 | 274 | 0.0 | 3.0 | 0.00 | 0.00 | 0.00 | 41 | 1013.5 |
| 20260906160519 | 93 | 327 | 1.0 | 3.0 | 0.00 | 0.00 | 0.00 | 42 | 1013.6 |
| 20260906160019 | 93 | 203 | 2.0 | 3.0 | 0.00 | 0.00 | 0.00 | 42 | 1013.6 |
| 20260906155518 | 92 | 180 | 0.0 | 0.0 | 0.00 | 0.00 | 0.00 | 43 | 1013.6 |
| 20260906155019 | 92 | 180 | 0.0 | 0.0 | 0.00 | 0.00 | 0.00 | 43 | 1013.6 |
| 20260906154519 | 91 | 180 | 0.0 | 2.0 | 0.00 | 0.00 | 0.00 | 43 | 1013.6 |
| 20260906154019 | 91 | 180 | 0.0 | 2.0 | 0.00 | 0.00 | 0.00 | 45 | 1013.6 |
| 20260906153518 | 90 | 180 | 0.0 | 2.0 | 0.00 | 0.00 | 0.00 | 46 | 1013.5 |
| 20260906153019 | 89 | 180 | 0.0 | 3.0 | 0.00 | 0.00 | 0.00 | 46 | 1013.6 |
| 20260906152519 | 89 | 182 | 0.0 | 3.0 | 0.00 | 0.00 | 0.00 | 47 | 1013.5 |
| 20260906152019 | 88 | 281 | 0.0 | 0.0 | 0.00 | 0.00 | 0.00 | 48 | 1013.5 |
| 20260906151519 | 88 | 275 | 0.0 | 0.0 | 0.00 | 0.00 | 0.00 | 48 | 1013.5 |
| 20260906151018 | 87 | 288 | 0.0 | 0.0 | 0.00 | 0.00 | 0.00 | 48 | 1013.4 |
| 20260906150518 | 87 | 290 | 0.0 | 0.0 | 0.00 | 0.00 | 0.00 | 49 | 1013.5 |
| 20260906150020 | 86 | 328 | 0.0 | 1.0 | 0.00 | 0.00 | 0.00 | 49 | 1013.4 |
| 20260906145019 | 86 | 329 | 0.0 | 2.0 | 0.00 | 0.00 | 0.00 | 50 | 1013.4 |
| 20260906144519 | 86 | 329 | 0.0 | 2.0 | 0.00 | 0.00 | 0.00 | 50 | 1013.4 |
| 20260906144018 | 85 | 340 | 0.0 | 3.0 | 0.00 | 0.00 | 0.00 | 50 | 1013.4 |
| 20260906143518 | 85 | 336 | 0.0 | 3.0 | 0.00 | 0.00 | 0.00 | 50 | 1013.4 |
| 20260906143019 | 85 | 188 | 0.0 | 0.0 | 0.00 | 0.00 | 0.00 | 50 | 1013.3 |
| 20260906142519 | 84 | 188 | 0.0 | 0.0 | 0.00 | 0.00 | 0.00 | 51 | 1013.4 |
| 20260906142018 | 84 | 188 | 0.0 | 0.0 | 0.00 | 0.00 | 0.00 | 51 | 1013.3 |
| 20260906141519 | 84 | 188 | 0.0 | 1.0 | 0.00 | 0.00 | 0.00 | 51 | 1013.4 |
| 20260906141018 | 83 | 188 | 0.0 | 1.0 | 0.00 | 0.00 | 0.00 | 51 | 1013.4 |
| 20260906140019 | 82 | 178 | 0.0 | 0.0 | 0.00 | 0.00 | 0.00 | 52 | 1013.3 |
| 20260906135518 | 82 | 178 | 0.0 | 0.0 | 0.00 | 0.00 | 0.00 | 53 | 1013.2 |
| 20260906135018 | 81 | 177 | 0.0 | 0.0 | 0.00 | 0.00 | 0.00 | 54 | 1013.1 |
| 20260906134519 | 81 | 177 | 0.0 | 0.0 | 0.00 | 0.00 | 0.00 | 54 | 1013.2 |
| 20260906134018 | 81 | 176 | 0.0 | 3.0 | 0.00 | 0.00 | 0.00 | 54 | 1013.2 |
| 20260906133019 | 80 | 175 | 0.0 | 0.0 | 0.00 | 0.00 | 0.00 | 55 | 1013.2 |
| 20260906132519 | 80 | 175 | 0.0 | 0.0 | 0.00 | 0.00 | 0.00 | 55 | 1013.2 |
| 20260906132018 | 79 | 175 | 0.0 | 0.0 | 0.00 | 0.00 | 0.00 | 55 | 1013.1 |
| 20260906131519 | 79 | 175 | 0.0 | 0.0 | 0.00 | 0.00 | 0.00 | 56 | 1013.1 |
| 20260906131018 | 79 | 175 | 0.0 | 0.0 | 0.00 | 0.00 | 0.00 | 56 | 1013.1 |
| 20260906130519 | 78 | 175 | 0.0 | 0.0 | 0.00 | 0.00 | 0.00 | 57 | 1013.1 |
| 20260906130020 | 78 | 175 | 0.0 | 0.0 | 0.00 | 0.00 | 0.00 | 57 | 1013.2 |
| 20260906125519 | 78 | 175 | 0.0 | 0.0 | 0.00 | 0.00 | 0.00 | 58 | 1013.1 |
| 20260906125019 | 78 | 175 | 0.0 | 0.0 | 0.00 | 0.00 | 0.00 | 58 | 1013.1 |
| 20260906124519 | 77 | 175 | 0.0 | 0.0 | 0.00 | 0.00 | 0.00 | 58 | 1013.1 |
| 20260906124019 | 78 | 175 | 0.0 | 0.0 | 0.00 | 0.00 | 0.00 | 58 | 1013.0 |
| 20260906123519 | 77 | 175 | 0.0 | 0.0 | 0.00 | 0.00 | 0.00 | 57 | 1012.9 |
| 20260906123020 | 77 | 175 | 0.0 | 0.0 | 0.00 | 0.00 | 0.00 | 57 | 1012.8 |
| 20260906122519 | 77 | 175 | 0.0 | 0.0 | 0.00 | 0.00 | 0.00 | 57 | 1012.8 |
| 20260906122018 | 77 | 175 | 0.0 | 0.0 | 0.00 | 0.00 | 0.00 | 57 | 1012.8 |
| 20260906121519 | 77 | 175 | 0.0 | 0.0 | 0.00 | 0.00 | 0.00 | 58 | 1012.7 |
| 20260906120519 | 77 | 175 | 0.0 | 0.0 | 0.00 | 0.00 | 0.00 | 58 | 1012.6 |
| 20260906120019 | 77 | 175 | 0.0 | 0.0 | 0.00 | 0.00 | 0.00 | 59 | 1012.6 |
| 20260906115518 | 77 | 175 | 0.0 | 0.0 | 0.00 | 0.00 | 0.00 | 59 | 1012.6 |
| 20260906115018 | 77 | 175 | 0.0 | 0.0 | 0.00 | 0.00 | 0.00 | 59 | 1012.4 |
| 20260906114519 | 77 | 175 | 0.0 | 0.0 | 0.00 | 0.00 | 0.00 | 58 | 1012.4 |
| 20260906114019 | 77 | 175 | 0.0 | 0.0 | 0.00 | 0.00 | 0.00 | 58 | 1012.4 |
| 20260906113519 | 77 | 175 | 0.0 | 0.0 | 0.00 | 0.00 | 0.00 | 58 | 1012.3 |
| 20260906113019 | 77 | 175 | 0.0 | 0.0 | 0.00 | 0.00 | 0.00 | 58 | 1012.2 |
| 20260906112518 | 77 | 175 | 0.0 | 0.0 | 0.00 | 0.00 | 0.00 | 58 | 1012.2 |
| 20260906112019 | 78 | 175 | 0.0 | 0.0 | 0.00 | 0.00 | 0.00 | 57 | 1012.1 |
| 20260906111519 | 78 | 175 | 0.0 | 0.0 | 0.00 | 0.00 | 0.00 | 57 | 1012.0 |
| 20260906110518 | 78 | 175 | 0.0 | 0.0 | 0.00 | 0.00 | 0.00 | 57 | 1011.9 |
| 20260906110019 | 78 | 175 | 0.0 | 0.0 | 0.00 | 0.00 | 0.00 | 57 | 1011.8 |
| 20260906105518 | 78 | 175 | 0.0 | 0.0 | 0.00 | 0.00 | 0.00 | 57 | 1011.8 |
| 20260906105020 | 78 | 175 | 0.0 | 0.0 | 0.00 | 0.00 | 0.00 | 57 | 1011.9 |
| 20260906104519 | 78 | 175 | 0.0 | 0.0 | 0.00 | 0.00 | 0.00 | 57 | 1012.0 |
| 20260906104019 | 78 | 175 | 0.0 | 0.0 | 0.00 | 0.00 | 0.00 | 57 | 1012.0 |
| 20260906103519 | 78 | 175 | 0.0 | 0.0 | 0.00 | 0.00 | 0.00 | 58 | 1011.9 |
| 20260906103019 | 78 | 175 | 0.0 | 0.0 | 0.00 | 0.00 | 0.00 | 57 | 1012.0 |
| 20260906102518 | 78 | 175 | 0.0 | 0.0 | 0.00 | 0.00 | 0.00 | 58 | 1012.0 |
| 20260906102019 | 78 | 175 | 0.0 | 0.0 | 0.00 | 0.00 | 0.00 | 58 | 1011.9 |
| 20260906101519 | 79 | 175 | 0.0 | 0.0 | 0.00 | 0.00 | 0.00 | 58 | 1011.9 |
| 20260906101019 | 79 | 175 | 0.0 | 0.0 | 0.00 | 0.00 | 0.00 | 58 | 1011.9 |
| 20260906100518 | 79 | 175 | 0.0 | 0.0 | 0.00 | 0.00 | 0.00 | 58 | 1011.9 |
| 20260906100019 | 79 | 175 | 0.0 | 0.0 | 0.00 | 0.00 | 0.00 | 57 | 1012.0 |
| 20260906095519 | 79 | 175 | 0.0 | 0.0 | 0.00 | 0.00 | 0.00 | 57 | 1012.0 |
| 20260906095019 | 79 | 175 | 0.0 | 0.0 | 0.00 | 0.00 | 0.00 | 57 | 1012.0 |
| 20260906094519 | 79 | 175 | 0.0 | 0.0 | 0.00 | 0.00 | 0.00 | 57 | 1011.9 |
| 20260906094018 | 79 | 175 | 0.0 | 0.0 | 0.00 | 0.00 | 0.00 | 56 | 1011.9 |
| 20260906093519 | 79 | 175 | 0.0 | 0.0 | 0.00 | 0.00 | 0.00 | 56 | 1011.9 |
| 20260906093019 | 79 | 175 | 0.0 | 0.0 | 0.00 | 0.00 | 0.00 | 56 | 1011.8 |
| 20260906092518 | 79 | 175 | 0.0 | 0.0 | 0.00 | 0.00 | 0.00 | 55 | 1011.7 |
| 20260906092018 | 79 | 175 | 0.0 | 0.0 | 0.00 | 0.00 | 0.00 | 55 | 1011.7 |
| 20260906091519 | 80 | 175 | 0.0 | 0.0 | 0.00 | 0.00 | 0.00 | 55 | 1011.8 |
| 20260906091019 | 80 | 175 | 0.0 | 0.0 | 0.00 | 0.00 | 0.00 | 54 | 1011.8 |
| 20260906090518 | 80 | 175 | 0.0 | 0.0 | 0.00 | 0.00 | 0.00 | 54 | 1011.7 |
| 20260906090019 | 80 | 175 | 0.0 | 0.0 | 0.00 | 0.00 | 0.00 | 54 | 1011.7 |
| 20260906085519 | 80 | 175 | 0.0 | 0.0 | 0.00 | 0.00 | 0.00 | 54 | 1011.6 |
| 20260906084519 | 80 | 175 | 0.0 | 0.0 | 0.00 | 0.00 | 0.00 | 54 | 1011.6 |
| 20260906084018 | 80 | 175 | 0.0 | 0.0 | 0.00 | 0.00 | 0.00 | 54 | 1011.5 |
| 20260906083518 | 80 | 175 | 0.0 | 0.0 | 0.00 | 0.00 | 0.00 | 54 | 1011.4 |
| 20260906083020 | 80 | 175 | 0.0 | 0.0 | 0.00 | 0.00 | 0.00 | 54 | 1011.4 |
| 20260906082518 | 80 | 175 | 0.0 | 0.0 | 0.00 | 0.00 | 0.00 | 55 | 1011.2 |
| 20260906082018 | 80 | 175 | 0.0 | 0.0 | 0.00 | 0.00 | 0.00 | 54 | 1011.2 |
| 20260906081519 | 80 | 175 | 0.0 | 0.0 | 0.00 | 0.00 | 0.00 | 54 | 1011.2 |
| 20260906081018 | 80 | 175 | 0.0 | 0.0 | 0.00 | 0.00 | 0.00 | 54 | 1011.2 |
| 20260906080019 | 80 | 175 | 0.0 | 0.0 | 0.00 | 0.00 | 0.00 | 54 | 1011.3 |
| 20260906075519 | 80 | 175 | 0.0 | 0.0 | 0.00 | 0.00 | 0.00 | 54 | 1011.2 |
| 20260906075018 | 80 | 175 | 0.0 | 0.0 | 0.00 | 0.00 | 0.00 | 54 | 1011.2 |
| 20260906074519 | 80 | 175 | 0.0 | 0.0 | 0.00 | 0.00 | 0.00 | 54 | 1011.1 |
| 20260906073518 | 81 | 175 | 0.0 | 0.0 | 0.00 | 0.00 | 0.00 | 54 | 1010.9 |
| 20260906073019 | 81 | 175 | 0.0 | 0.0 | 0.00 | 0.00 | 0.00 | 54 | 1011.0 |
| 20260906072518 | 81 | 175 | 0.0 | 0.0 | 0.00 | 0.00 | 0.00 | 53 | 1011.2 |
| 20260906071519 | 81 | 175 | 0.0 | 0.0 | 0.00 | 0.00 | 0.00 | 53 | 1011.2 |
| 20260906070019 | 81 | 175 | 0.0 | 0.0 | 0.00 | 0.00 | 0.00 | 53 | 1011.4 |
| 20260906065519 | 81 | 175 | 0.0 | 0.0 | 0.00 | 0.00 | 0.00 | 53 | 1011.3 |
| 20260906065018 | 81 | 175 | 0.0 | 0.0 | 0.00 | 0.00 | 0.00 | 53 | 1011.3 |
| 20260906064519 | 81 | 175 | 0.0 | 0.0 | 0.00 | 0.00 | 0.00 | 53 | 1011.3 |
| 20260906064018 | 82 | 175 | 0.0 | 0.0 | 0.00 | 0.00 | 0.00 | 52 | 1011.3 |
| 20260906063518 | 82 | 175 | 0.0 | 0.0 | 0.00 | 0.00 | 0.00 | 52 | 1011.3 |
| 20260906063019 | 82 | 175 | 0.0 | 0.0 | 0.00 | 0.00 | 0.00 | 52 | 1011.3 |
| 20260906062518 | 82 | 175 | 0.0 | 0.0 | 0.00 | 0.00 | 0.00 | 52 | 1011.4 |
| 20260906062018 | 82 | 175 | 0.0 | 0.0 | 0.00 | 0.00 | 0.00 | 52 | 1011.3 |
| 20260906061518 | 82 | 175 | 0.0 | 0.0 | 0.00 | 0.00 | 0.00 | 52 | 1011.3 |
| 20260906060518 | 82 | 175 | 0.0 | 0.0 | 0.00 | 0.00 | 0.00 | 51 | 1011.4 |
| 20260906060018 | 83 | 175 | 0.0 | 0.0 | 0.00 | 0.00 | 0.00 | 51 | 1011.4 |
| 20260906055518 | 83 | 175 | 0.0 | 0.0 | 0.00 | 0.00 | 0.00 | 50 | 1011.5 |
| 20260906055018 | 83 | 175 | 0.0 | 0.0 | 0.00 | 0.00 | 0.00 | 50 | 1011.4 |
| 20260906054519 | 83 | 175 | 0.0 | 0.0 | 0.00 | 0.00 | 0.00 | 50 | 1011.3 |
| 20260906054019 | 83 | 175 | 0.0 | 0.0 | 0.00 | 0.00 | 0.00 | 50 | 1011.4 |
| 20260906053519 | 84 | 175 | 0.0 | 0.0 | 0.00 | 0.00 | 0.00 | 50 | 1011.3 |
| 20260906053019 | 84 | 175 | 0.0 | 0.0 | 0.00 | 0.00 | 0.00 | 49 | 1011.2 |
| 20260906052518 | 84 | 175 | 0.0 | 0.0 | 0.00 | 0.00 | 0.00 | 49 | 1011.2 |
| 20260906051018 | 85 | 175 | 0.0 | 0.0 | 0.00 | 0.00 | 0.00 | 48 | 1011.1 |
| 20260906045518 | 85 | 175 | 0.0 | 1.0 | 0.00 | 0.00 | 0.00 | 48 | 1011.0 |
| 20260906045019 | 85 | 175 | 0.0 | 3.0 | 0.00 | 0.00 | 0.00 | 48 | 1011.1 |
| 20260906044018 | 84 | 176 | 0.0 | 0.0 | 0.00 | 0.00 | 0.00 | 49 | 1011.0 |
| 20260906043518 | 85 | 176 | 0.0 | 0.0 | 0.00 | 0.00 | 0.00 | 49 | 1011.0 |
| 20260906043019 | 85 | 176 | 0.0 | 0.0 | 0.00 | 0.00 | 0.00 | 49 | 1011.0 |
| 20260906042518 | 85 | 176 | 0.0 | 0.0 | 0.00 | 0.00 | 0.00 | 48 | 1011.0 |
| 20260906042018 | 85 | 176 | 0.0 | 0.0 | 0.00 | 0.00 | 0.00 | 48 | 1011.0 |
| 20260906041018 | 85 | 176 | 0.0 | 0.0 | 0.00 | 0.00 | 0.00 | 48 | 1011.0 |
| 20260906040519 | 85 | 176 | 0.0 | 1.0 | 0.00 | 0.00 | 0.00 | 48 | 1011.0 |
| 20260906040019 | 86 | 176 | 0.0 | 1.0 | 0.00 | 0.00 | 0.00 | 47 | 1011.1 |
| 20260906035518 | 86 | 176 | 0.0 | 0.0 | 0.00 | 0.00 | 0.00 | 47 | 1011.1 |
| 20260906035018 | 86 | 176 | 0.0 | 0.0 | 0.00 | 0.00 | 0.00 | 47 | 1011.1 |
| 20260906034519 | 86 | 176 | 0.0 | 0.0 | 0.00 | 0.00 | 0.00 | 47 | 1011.1 |
| 20260906033519 | 86 | 176 | 0.0 | 1.0 | 0.00 | 0.00 | 0.00 | 47 | 1011.0 |
| 20260906033019 | 87 | 176 | 0.0 | 0.0 | 0.00 | 0.00 | 0.00 | 46 | 1010.9 |
| 20260906032518 | 87 | 176 | 0.0 | 0.0 | 0.00 | 0.00 | 0.00 | 46 | 1011.0 |
| 20260906032018 | 87 | 176 | 0.0 | 0.0 | 0.00 | 0.00 | 0.00 | 46 | 1011.0 |
| 20260906031519 | 87 | 176 | 0.0 | 0.0 | 0.00 | 0.00 | 0.00 | 46 | 1011.2 |
| 20260906031018 | 87 | 176 | 0.0 | 0.0 | 0.00 | 0.00 | 0.00 | 46 | 1011.2 |
| 20260906030518 | 87 | 176 | 0.0 | 1.0 | 0.00 | 0.00 | 0.00 | 46 | 1011.2 |
| 20260906030019 | 87 | 176 | 0.0 | 1.0 | 0.00 | 0.00 | 0.00 | 46 | 1011.2 |
| 20260906025018 | 87 | 176 | 0.0 | 2.0 | 0.00 | 0.00 | 0.00 | 46 | 1011.1 |
| 20260906024519 | 88 | 176 | 0.0 | 0.0 | 0.00 | 0.00 | 0.00 | 46 | 1010.9 |
| 20260906023518 | 88 | 176 | 0.0 | 0.0 | 0.00 | 0.00 | 0.00 | 45 | 1010.7 |
| 20260906023019 | 88 | 176 | 0.0 | 0.0 | 0.00 | 0.00 | 0.00 | 44 | 1010.6 |
| 20260906022518 | 88 | 176 | 0.0 | 0.0 | 0.00 | 0.00 | 0.00 | 44 | 1010.5 |
| 20260906021519 | 89 | 176 | 0.0 | 0.0 | 0.00 | 0.00 | 0.00 | 43 | 1010.3 |
| 20260906021019 | 89 | 176 | 0.0 | 0.0 | 0.00 | 0.00 | 0.00 | 43 | 1010.2 |
| 20260906020518 | 89 | 176 | 0.0 | 0.0 | 0.00 | 0.00 | 0.00 | 41 | 1010.2 |
| 20260906015518 | 90 | 176 | 0.0 | 0.0 | 0.00 | 0.00 | 0.00 | 41 | 1010.2 |
| 20260906015019 | 90 | 176 | 0.0 | 0.0 | 0.00 | 0.00 | 0.00 | 40 | 1010.1 |
| 20260906014519 | 91 | 176 | 0.0 | 0.0 | 0.00 | 0.00 | 0.00 | 39 | 1010.1 |
| 20260906013518 | 91 | 176 | 0.0 | 0.0 | 0.00 | 0.00 | 0.00 | 38 | 1010.1 |
| 20260906013018 | 92 | 176 | 0.0 | 0.0 | 0.00 | 0.00 | 0.00 | 38 | 1010.0 |
| 20260906012519 | 92 | 176 | 0.0 | 0.0 | 0.00 | 0.00 | 0.00 | 37 | 1009.9 |
| 20260906011519 | 93 | 176 | 0.0 | 0.0 | 0.00 | 0.00 | 0.00 | 36 | 1009.9 |
| 20260906011018 | 94 | 176 | 0.0 | 0.0 | 0.00 | 0.00 | 0.00 | 36 | 1009.9 |
| 20260906010019 | 95 | 176 | 0.0 | 1.0 | 0.00 | 0.00 | 0.00 | 35 | 1009.9 |
| 20260906005518 | 95 | 176 | 0.0 | 1.0 | 0.00 | 0.00 | 0.00 | 34 | 1009.8 |
| 20260906005018 | 96 | 176 | 0.0 | 0.0 | 0.00 | 0.00 | 0.00 | 33 | 1009.8 |
| 20260906004518 | 96 | 176 | 0.0 | 0.0 | 0.00 | 0.00 | 0.00 | 32 | 1009.8 |
| 20260906003519 | 97 | 176 | 0.0 | 0.0 | 0.00 | 0.00 | 0.00 | 31 | 1009.7 |
| 20260906003019 | 97 | 176 | 0.0 | 0.0 | 0.00 | 0.00 | 0.00 | 31 | 1009.8 |
| 20260906002518 | 97 | 176 | 0.0 | 0.0 | 0.00 | 0.00 | 0.00 | 31 | 1009.7 |
| 20260906001518 | 98 | 176 | 0.0 | 3.0 | 0.00 | 0.00 | 0.00 | 29 | 1009.7 |
| 20260906000518 | 98 | 176 | 0.0 | 5.0 | 0.00 | 0.00 | 0.00 | 28 | 1009.7 |
| 20260906000019 | 98 | 180 | 5.0 | 5.0 | 0.00 | 0.00 | 0.00 | 28 | 1009.7 |
| 20260905235018 | 98 | 163 | 0.0 | 6.0 | 0.00 | 0.00 | 0.00 | 28 | 1009.7 |
| 20260905234519 | 98 | 163 | 1.0 | 6.0 | 0.00 | 0.00 | 0.00 | 27 | 1009.6 |
| 20260905234018 | 99 | 257 | 0.0 | 4.0 | 0.00 | 0.00 | 0.00 | 27 | 1009.5 |
| 20260905233518 | 99 | 178 | 0.0 | 6.0 | 0.00 | 0.00 | 0.00 | 26 | 1009.5 |
| 20260905233018 | 99 | 170 | 1.0 | 6.0 | 0.00 | 0.00 | 0.00 | 26 | 1009.5 |
| 20260905232518 | 99 | 169 | 0.0 | 6.0 | 0.00 | 0.00 | 0.00 | 26 | 1009.5 |
| 20260905231018 | 99 | 188 | 2.0 | 8.0 | 0.00 | 0.00 | 0.00 | 26 | 1009.5 |
| 20260905230518 | 99 | 157 | 1.0 | 5.0 | 0.00 | 0.00 | 0.00 | 26 | 1009.5 |
| 20260905230019 | 99 | 174 | 2.0 | 11.0 | 0.00 | 0.00 | 0.00 | 26 | 1009.4 |
| 20260905224519 | 100 | 175 | 2.0 | 6.0 | 0.00 | 0.00 | 0.00 | 25 | 1009.5 |
| 20260905224019 | 100 | 163 | 1.0 | 6.0 | 0.00 | 0.00 | 0.00 | 25 | 1009.6 |
| 20260905223518 | 100 | 171 | 0.0 | 8.0 | 0.00 | 0.00 | 0.00 | 24 | 1009.6 |
| 20260905223018 | 100 | 159 | 5.0 | 8.0 | 0.00 | 0.00 | 0.00 | 24 | 1009.7 |
| 20260905222518 | 100 | 171 | 5.0 | 8.0 | 0.00 | 0.00 | 0.00 | 23 | 1009.7 |
| 20260905222019 | 101 | 177 | 2.0 | 5.0 | 0.00 | 0.00 | 0.00 | 23 | 1009.7 |
| 20260905221518 | 101 | 147 | 3.0 | 4.0 | 0.00 | 0.00 | 0.00 | 24 | 1009.7 |
| 20260905221018 | 101 | 150 | 2.0 | 7.0 | 0.00 | 0.00 | 0.00 | 23 | 1009.7 |
| 20260905220518 | 101 | 166 | 4.0 | 5.0 | 0.00 | 0.00 | 0.00 | 23 | 1009.8 |
| 20260905220019 | 102 | 146 | 1.0 | 4.0 | 0.00 | 0.00 | 0.00 | 24 | 1009.8 |
| 20260905215518 | 102 | 360 | 0.0 | 2.0 | 0.00 | 0.00 | 0.00 | 25 | 1009.9 |
| 20260905215018 | 101 | 144 | 0.0 | 3.0 | 0.00 | 0.00 | 0.00 | 25 | 1009.9 |
| 20260905214518 | 101 | 144 | 1.0 | 5.0 | 0.00 | 0.00 | 0.00 | 25 | 1010.0 |
| 20260905214018 | 101 | 160 | 0.0 | 6.0 | 0.00 | 0.00 | 0.00 | 25 | 1010.1 |
| 20260905213518 | 102 | 157 | 3.0 | 6.0 | 0.00 | 0.00 | 0.00 | 24 | 1010.1 |
| 20260905213018 | 102 | 46 | 1.0 | 3.0 | 0.00 | 0.00 | 0.00 | 26 | 1010.1 |
| 20260905212518 | 101 | 157 | 0.0 | 3.0 | 0.00 | 0.00 | 0.00 | 26 | 1010.2 |
| 20260905212018 | 101 | 161 | 0.0 | 10.0 | 0.00 | 0.00 | 0.00 | 26 | 1010.3 |
| 20260905211019 | 101 | 159 | 1.0 | 8.0 | 0.00 | 0.00 | 0.00 | 26 | 1010.3 |
| 20260905210518 | 102 | 173 | 3.0 | 4.0 | 0.00 | 0.00 | 0.00 | 25 | 1010.4 |
| 20260905210018 | 102 | 213 | 1.0 | 3.0 | 0.00 | 0.00 | 0.00 | 26 | 1010.4 |
| 20260905205519 | 101 | 157 | 0.0 | 5.0 | 0.00 | 0.00 | 0.00 | 26 | 1010.5 |
| 20260905205018 | 101 | 190 | 0.0 | 7.0 | 0.00 | 0.00 | 0.00 | 26 | 1010.7 |
| 20260905204519 | 101 | 167 | 8.0 | 10.0 | 0.00 | 0.00 | 0.00 | 27 | 1010.7 |
| 20260905203019 | 101 | 360 | 0.0 | 7.0 | 0.00 | 0.00 | 0.00 | 27 | 1011.0 |
| 20260905202518 | 101 | 184 | 2.0 | 6.0 | 0.00 | 0.00 | 0.00 | 27 | 1011.0 |
| 20260905202018 | 102 | 167 | 5.0 | 7.0 | 0.00 | 0.00 | 0.00 | 26 | 1011.1 |
| 20260905201519 | 101 | 347 | 1.0 | 7.0 | 0.00 | 0.00 | 0.00 | 26 | 1011.1 |
| 20260905201018 | 101 | 165 | 4.0 | 10.0 | 0.00 | 0.00 | 0.00 | 27 | 1011.3 |
| 20260905200019 | 101 | 178 | 0.0 | 6.0 | 0.00 | 0.00 | 0.00 | 27 | 1011.5 |
| 20260905195518 | 101 | 261 | 3.0 | 6.0 | 0.00 | 0.00 | 0.00 | 28 | 1011.5 |
| 20260905195018 | 100 | 360 | 0.0 | 7.0 | 0.00 | 0.00 | 0.00 | 29 | 1011.6 |
| 20260905194518 | 100 | 198 | 2.0 | 7.0 | 0.00 | 0.00 | 0.00 | 29 | 1011.7 |
| 20260905193518 | 100 | 207 | 1.0 | 10.0 | 0.00 | 0.00 | 0.00 | 29 | 1012.0 |